Sichem Manila — 9HA3324 — position and weather

sailwx.info

Track history (hours):
 
Tides and Currents Weather Stations Pressure Air Temp Water Temp Dewpoint Dewpoint Depression Visibility Wind Speed Wind Dir Waves Ship Positions

Sichem Manila

Last reported at 2018-Jan-20 15:00 UTC. Time now 2018-Jan-20 15:18 UTC.
Position N 49°44' W 003°35'.

Length 129 m; draft 8.5 m.

Type: Ship. MMSI: 229432000.

Date/timePositionNaut miles runAvg speedWind from/ knotsBaromVisibWave heightAir tempDewpointWater temp
2018-Jan-20 15:00N 49°44' W 003°35'5 8.9
2018-Jan-20 14:25N 49°47' W 003°28'4 9.3
2018-Jan-20 14:00N 49°49' W 003°23'5 9.4
2018-Jan-20 13:30N 49°51' W 003°17'5 9.6
2018-Jan-20 13:00N 49°54' W 003°10'5 9.1
2018-Jan-20 12:30N 49°56' W 003°04'4 8.6
2018-Jan-20 12:00N 49°58' W 002°58'4 8.5
2018-Jan-20 11:30N 49°60' W 002°52'4 8.2
2018-Jan-20 11:00N 50°01' W 002°46'4 7.8
2018-Jan-20 10:30N 50°02' W 002°41'4 7.7
2018-Jan-20 10:00N 50°03' W 002°35'5 7.9
2018-Jan-20 09:21N 50°05' W 002°27'7911.9
2018-Jan-20 02:42N 50°25' W 000°28'212.8
2018-Jan-20 02:30N 50°26' W 000°24'612.2
2018-Jan-20 02:00N 50°27' W 000°15'611.5
2018-Jan-20 01:30N 50°29' W 000°06'510.8
2018-Jan-20 01:00N 50°30' E 000°03'510.2
2018-Jan-20 00:30N 50°31' E 000°10'5 9.6
2018-Jan-20 00:00N 50°33' E 000°17'5 9.2
2018-Jan-19 23:30N 50°34' E 000°24'4 8.8
2018-Jan-19 23:00N 50°35' E 000°31'4 8.4
2018-Jan-19 22:30N 50°36' E 000°37'4 8.7
2018-Jan-19 22:00N 50°38' E 000°43'5 9.1
2018-Jan-19 21:30N 50°42' E 000°48'510.0
2018-Jan-19 21:00N 50°45' E 000°54'511.0
2018-Jan-19 20:30N 50°48' E 001°01'711.8
2018-Jan-19 19:57N 50°53' E 001°09'612.4
2018-Jan-19 19:29N 50°57' E 001°15'612.9
2018-Jan-19 19:00N 51°01' E 001°22'612.3
2018-Jan-19 18:30N 51°05' E 001°30'611.6
2018-Jan-19 18:00N 51°09' E 001°37'510.9
2018-Jan-19 17:30N 51°12' E 001°44'510.3
2018-Jan-19 17:00N 51°16' E 001°49'5 9.9
2018-Jan-19 16:30N 51°20' E 001°53'5 9.6
2018-Jan-19 16:00N 51°24' E 001°57'5 9.3
2018-Jan-19 15:30N 51°28' E 002°01'5 9.1
2018-Jan-19 15:00N 51°32' E 002°05'5 9.1
2018-Jan-19 14:30N 51°35' E 002°10'5 9.4
2018-Jan-19 13:58N 51°39' E 002°16'4 9.6
2018-Jan-19 13:30N 51°42' E 002°21'510.1
2018-Jan-19 13:00N 51°46' E 002°26'611.0
2018-Jan-19 12:30N 51°51' E 002°31'610.8
2018-Jan-19 11:59N 51°55' E 002°36'612.6
2018-Jan-19 11:28N 52°02' E 002°36'612.9
2018-Jan-19 10:59N 52°08' E 002°37'613.1
2018-Jan-19 10:29N 52°15' E 002°37'  
2018-Jan-12 14:32N 55°55' E 010°57'314.0
2018-Jan-12 14:19N 55°52' E 010°53'813.5
2018-Jan-12 13:43N 55°45' E 010°48'413.7
2018-Jan-12 13:27N 55°41' E 010°47'2014.0
2018-Jan-12 11:59N 55°22' E 011°02'612.4
2018-Jan-12 11:28N 55°16' E 011°02'1 0.4
2018-Jan-12 08:32N 55°15' E 011°01'0 0.0
2018-Jan-12 08:17N 55°15' E 011°01'0 0.0
2018-Jan-12 07:41N 55°15' E 011°01'0 0.0
2018-Jan-12 07:23N 55°15' E 011°01'0 0.0
2018-Jan-12 06:59N 55°15' E 011°01'0 0.0
2018-Jan-12 06:29N 55°15' E 011°01'0 0.0
2018-Jan-12 05:59N 55°15' E 011°01'0 0.0
2018-Jan-12 05:20N 55°15' E 011°01'0 0.0
2018-Jan-12 04:56N 55°15' E 011°01'0 0.0
2018-Jan-12 04:23N 55°15' E 011°01'0 0.0
2018-Jan-12 03:02N 55°15' E 011°01'0 0.0
2018-Jan-12 02:38N 55°15' E 011°01'0 0.1
2018-Jan-12 02:29N 55°15' E 011°01'0 0.0
2018-Jan-11 22:35N 55°15' E 011°01'0 0.1
2018-Jan-11 22:29N 55°15' E 011°01'0 0.0
2018-Jan-11 19:23N 55°15' E 011°01'0 0.0
2018-Jan-11 18:56N 55°15' E 011°01'0 0.0
2018-Jan-11 18:20N 55°15' E 011°01'0 0.1
2018-Jan-11 17:59N 55°15' E 011°01'0 0.0
2018-Jan-11 16:41N 55°15' E 011°01'0 0.5
2018-Jan-11 16:31N 55°15' E 011°01'3 4.7
2018-Jan-11 15:57N 55°17' E 010°58'4 8.9
2018-Jan-11 15:30N 55°16' E 010°51'  
Track history (hours):
 
Tides and Currents Weather Stations Pressure Air Temp Water Temp Dewpoint Dewpoint Depression Visibility Wind Speed Wind Dir Waves Ship Positions

Sichem Manila

Last reported at 2018-Jan-20 15:00 UTC. Time now 2018-Jan-20 15:18 UTC.
Position N 49°44' W 003°35'.

Length 129 m; draft 8.5 m.

Type: Ship. MMSI: 229432000.

Date/timePositionNaut miles runAvg speedWind from/ knotsBaromVisibWave heightAir tempDewpointWater temp
2018-Jan-20 15:00N 49°44' W 003°35'5 8.9
2018-Jan-20 14:25N 49°47' W 003°28'4 9.3
2018-Jan-20 14:00N 49°49' W 003°23'5 9.4
2018-Jan-20 13:30N 49°51' W 003°17'5 9.6
2018-Jan-20 13:00N 49°54' W 003°10'5 9.1
2018-Jan-20 12:30N 49°56' W 003°04'4 8.6
2018-Jan-20 12:00N 49°58' W 002°58'4 8.5
2018-Jan-20 11:30N 49°60' W 002°52'4 8.2
2018-Jan-20 11:00N 50°01' W 002°46'4 7.8
2018-Jan-20 10:30N 50°02' W 002°41'4 7.7
2018-Jan-20 10:00N 50°03' W 002°35'5 7.9
2018-Jan-20 09:21N 50°05' W 002°27'7911.9
2018-Jan-20 02:42N 50°25' W 000°28'212.8
2018-Jan-20 02:30N 50°26' W 000°24'612.2
2018-Jan-20 02:00N 50°27' W 000°15'611.5
2018-Jan-20 01:30N 50°29' W 000°06'510.8
2018-Jan-20 01:00N 50°30' E 000°03'510.2
2018-Jan-20 00:30N 50°31' E 000°10'5 9.6
2018-Jan-20 00:00N 50°33' E 000°17'5 9.2
2018-Jan-19 23:30N 50°34' E 000°24'4 8.8
2018-Jan-19 23:00N 50°35' E 000°31'4 8.4
2018-Jan-19 22:30N 50°36' E 000°37'4 8.7
2018-Jan-19 22:00N 50°38' E 000°43'5 9.1
2018-Jan-19 21:30N 50°42' E 000°48'510.0
2018-Jan-19 21:00N 50°45' E 000°54'511.0
2018-Jan-19 20:30N 50°48' E 001°01'711.8
2018-Jan-19 19:57N 50°53' E 001°09'612.4
2018-Jan-19 19:29N 50°57' E 001°15'612.9
2018-Jan-19 19:00N 51°01' E 001°22'612.3
2018-Jan-19 18:30N 51°05' E 001°30'611.6
2018-Jan-19 18:00N 51°09' E 001°37'510.9
2018-Jan-19 17:30N 51°12' E 001°44'510.3
2018-Jan-19 17:00N 51°16' E 001°49'5 9.9
2018-Jan-19 16:30N 51°20' E 001°53'5 9.6
2018-Jan-19 16:00N 51°24' E 001°57'5 9.3
2018-Jan-19 15:30N 51°28' E 002°01'5 9.1
2018-Jan-19 15:00N 51°32' E 002°05'5 9.1
2018-Jan-19 14:30N 51°35' E 002°10'5 9.4
2018-Jan-19 13:58N 51°39' E 002°16'4 9.6
2018-Jan-19 13:30N 51°42' E 002°21'510.1
2018-Jan-19 13:00N 51°46' E 002°26'611.0
2018-Jan-19 12:30N 51°51' E 002°31'610.8
2018-Jan-19 11:59N 51°55' E 002°36'612.6
2018-Jan-19 11:28N 52°02' E 002°36'612.9
2018-Jan-19 10:59N 52°08' E 002°37'613.1
2018-Jan-19 10:29N 52°15' E 002°37'  
2018-Jan-12 14:32N 55°55' E 010°57'314.0
2018-Jan-12 14:19N 55°52' E 010°53'813.5
2018-Jan-12 13:43N 55°45' E 010°48'413.7
2018-Jan-12 13:27N 55°41' E 010°47'2014.0
2018-Jan-12 11:59N 55°22' E 011°02'612.4
2018-Jan-12 11:28N 55°16' E 011°02'1 0.4
2018-Jan-12 08:32N 55°15' E 011°01'0 0.0
2018-Jan-12 08:17N 55°15' E 011°01'0 0.0
2018-Jan-12 07:41N 55°15' E 011°01'0 0.0
2018-Jan-12 07:23N 55°15' E 011°01'0 0.0
2018-Jan-12 06:59N 55°15' E 011°01'0 0.0
2018-Jan-12 06:29N 55°15' E 011°01'0 0.0
2018-Jan-12 05:59N 55°15' E 011°01'0 0.0
2018-Jan-12 05:20N 55°15' E 011°01'0 0.0
2018-Jan-12 04:56N 55°15' E 011°01'0 0.0
2018-Jan-12 04:23N 55°15' E 011°01'0 0.0
2018-Jan-12 03:02N 55°15' E 011°01'0 0.0
2018-Jan-12 02:38N 55°15' E 011°01'0 0.1
2018-Jan-12 02:29N 55°15' E 011°01'0 0.0
2018-Jan-11 22:35N 55°15' E 011°01'0 0.1
2018-Jan-11 22:29N 55°15' E 011°01'0 0.0
2018-Jan-11 19:23N 55°15' E 011°01'0 0.0
2018-Jan-11 18:56N 55°15' E 011°01'0 0.0
2018-Jan-11 18:20N 55°15' E 011°01'0 0.1
2018-Jan-11 17:59N 55°15' E 011°01'0 0.0
2018-Jan-11 16:41N 55°15' E 011°01'0 0.5
2018-Jan-11 16:31N 55°15' E 011°01'3 4.7
2018-Jan-11 15:57N 55°17' E 010°58'4 8.9
2018-Jan-11 15:30N 55°16' E 010°51'  

Dump ship's entire track history